Latest Weather Observations for Holsworthy

IDN60801

Issued at 11:03 pm EST Tuesday 28 June 2016 (issued every 30 minutes, with the page automatically refreshed every 10 minutes)

About weather observations | Map of weather stations | Latest weather observations for NSW | Other Formats
Station Details ID: 066161 Name: HOLSWORTHY AERODROME AWS Lat: -33.99 Lon: 150.95 Height: 68.16 m
Data from the previous 72 hours. | See also: Recent months at Holsworthy
Date/Time
EST
Temp
°C
App
Temp
°C
Dew
Point
°C
Rel
Hum
%
Delta-T
°C
Wind Press
QNH
hPa
Press
MSL
hPa
Rain since
9am
mm
Dir  Spd
km/h
Gust
km/h
Spd
kts
Gust
kts
28/11:00pm 6.8 3.2 2.9 76 1.6 SW 11 15 6 8 1027.3 1027.4 0.0
28/10:30pm 5.9 2.2 2.5 79 1.4 SW 11 13 6 7 1027.3 1027.4 0.0
28/10:00pm 6.5 3.3 2.9 78 1.5 SW 9 13 5 7 1027.0 1027.1 0.0
28/09:30pm 6.2 3.0 2.8 79 1.4 SW 9 11 5 6 1027.1 1027.2 0.0
28/09:00pm 6.6 3.4 2.9 77 1.5 SW 9 11 5 6 1027.0 1027.1 0.0
28/08:30pm 7.6 4.1 3.3 74 1.8 SW 11 15 6 8 1026.9 1027.0 0.0
28/08:00pm 8.3 4.8 3.6 72 2.0 SW 11 15 6 8 1026.7 1026.8 0.0
28/07:30pm 8.8 5.3 3.4 69 2.3 SW 11 13 6 7 1026.3 1026.4 0.0
28/07:00pm 9.1 5.9 3.3 67 2.5 SW 9 11 5 6 1026.0 1026.1 0.0
28/06:30pm 9.9 7.1 3.4 64 2.8 SW 7 9 4 5 1025.5 1025.6 0.0
28/06:00pm 10.1 7.0 3.6 64 2.8 SW 9 13 5 7 1025.2 1025.3 0.0
28/05:30pm 10.4 7.9 3.7 63 3.0 WSW 6 7 3 4 1024.8 1024.9 0.0
28/05:00pm 12.3 9.6 3.5 55 3.9 W 7 9 4 5 1024.4 1024.5 0.0
28/04:30pm 14.5 11.4 3.6 48 5.0 W 9 15 5 8 1024.1 1024.2 0.0
28/04:00pm 15.4 11.8 3.2 44 5.5 SW 11 17 6 9 1023.8 1023.9 0.0
28/03:30pm 16.0 12.0 3.1 42 5.9 SW 13 19 7 10 1023.5 1023.6 0.0
28/03:00pm 16.0 11.3 3.1 42 5.9 WSW 17 26 9 14 1023.1 1023.1 0.0
28/02:30pm 16.1 11.5 3.9 44 5.7 WSW 17 28 9 15 1022.8 1022.8 0.0
28/02:00pm 15.9 11.6 3.4 43 5.7 WSW 15 22 8 12 1022.8 1022.8 0.0
28/01:30pm 15.4 10.3 2.9 43 5.7 SW 19 30 10 16 1022.8 1022.8 0.0
28/01:00pm 15.1 10.4 3.3 45 5.3 WSW 17 26 9 14 1022.8 1022.8 0.0
28/12:30pm 14.9 10.2 3.1 45 5.3 W 17 26 9 14 1023.0 1023.0 0.0
28/12:00pm 14.8 10.2 3.6 47 5.1 WSW 17 30 9 16 1023.0 1023.0 0.0
28/11:30am 14.1 8.5 3.6 49 4.8 WSW 22 32 12 17 1023.3 1023.3 0.0
28/11:00am 13.4 7.3 2.9 49 4.6 WSW 24 35 13 19 1023.7 1023.8 0.0
28/10:30am 12.4 6.4 3.1 53 4.1 WSW 24 35 13 19 1023.8 1023.9 0.0
28/10:00am 11.6 6.5 3.1 56 3.7 WSW 19 30 10 16 1023.9 1024.0 0.0
28/09:30am 10.5 5.1 2.6 58 3.4 WSW 20 32 11 17 1023.8 1023.9 0.0
28/09:00am 9.5 4.0 2.1 60 3.1 SW 20 33 11 18 1023.4 1023.5 1.8
28/08:30am 8.7 3.5 2.3 64 2.7 WSW 19 26 10 14 1023.0 1023.0 1.8
28/08:00am 7.7 2.8 2.0 67 2.3 WSW 17 24 9 13 1022.6 1022.6 1.8
28/07:30am 6.8 2.2 1.7 70 2.1 WSW 15 20 8 11 1022.2 1022.2 1.8
28/07:00am 6.7 1.7 1.6 70 2.1 WSW 17 26 9 14 1021.7 1021.7 1.8
28/06:30am 7.0 1.7 1.7 69 2.2 SW 19 28 10 15 1021.0 1021.0 1.8
28/06:00am 7.2 1.7 1.7 68 2.2 SW 20 28 11 15 1020.7 1020.7 1.8
28/05:30am 7.4 1.9 1.7 67 2.3 WSW 20 30 11 16 1020.1 1020.1 1.8
28/05:00am 7.4 2.1 1.7 67 2.3 SW 19 26 10 14 1019.8 1019.8 1.8
28/04:30am 7.1 2.2 1.8 69 2.2 WSW 17 26 9 14 1019.4 1019.4 1.8
28/04:00am 7.0 2.8 1.9 70 2.1 WSW 13 19 7 10 1019.1 1019.1 1.8
28/03:30am 7.4 2.9 1.9 68 2.3 WSW 15 20 8 11 1018.7 1018.7 1.8
28/03:00am 7.7 2.8 1.8 66 2.4 WSW 17 22 9 12 1018.6 1018.6 1.8
28/02:30am 7.9 2.6 2.0 66 2.4 WSW 19 30 10 16 1018.3 1018.3 1.8
28/02:00am 7.6 2.3 1.9 67 2.3 WSW 19 24 10 13 1018.0 1018.0 1.8
28/01:30am 7.8 2.9 1.9 66 2.4 WSW 17 24 9 13 1017.9 1017.9 1.8
28/01:00am 7.8 2.6 2.3 68 2.3 SW 19 30 10 16 1017.9 1017.9 1.8
28/12:30am 8.0 3.2 2.5 68 2.3 WSW 17 26 9 14 1017.9 1017.9 1.8
28/12:00am 8.5 3.7 2.5 66 2.5 WSW 17 24 9 13 1018.0 1018.0 1.8
 
Date/Time
EST
Temp
°C
App
Temp
°C
Dew
Point
°C
Rel
Hum
%
Delta-T
°C
Wind Press
QNH
hPa
Press
MSL
hPa
Rain since
9am
mm
Dir  Spd
km/h
Gust
km/h
Spd
kts
Gust
kts
27/11:30pm 8.6 3.4 2.6 66 2.5 WSW 19 28 10 15 1018.0 1018.0 1.8
27/11:00pm 9.2 3.5 2.8 64 2.7 WSW 22 35 12 19 1017.8 1017.8 1.8
27/10:30pm 9.5 4.2 3.0 64 2.8 WSW 20 33 11 18 1017.6 1017.6 1.8
27/10:00pm 9.5 4.4 3.3 65 2.7 WSW 19 30 10 16 1017.3 1017.3 1.8
27/09:30pm 9.2 5.0 3.6 68 2.4 SW 15 22 8 12 1017.1 1017.1 1.8
27/09:00pm 8.7 5.7 4.3 74 1.9 SW 9 13 5 7 1016.9 1016.9 1.8
27/08:30pm 8.7 5.8 4.7 76 1.8 WSW 9 13 5 7 1016.8 1016.8 1.8
27/08:00pm 8.8 5.5 4.4 74 1.9 WSW 11 15 6 8 1016.4 1016.4 1.8
27/07:30pm 8.5 5.7 5.1 79 1.5 WSW 9 15 5 8 1016.4 1016.4 1.8
27/07:00pm 8.3 5.6 5.8 84 1.1 W 9 13 5 7 1016.1 1016.1 1.8
27/06:30pm 8.3 6.1 6.4 88 0.9 WSW 7 9 4 5 1015.9 1015.9 1.8
27/06:00pm 8.6 6.6 6.9 89 0.8 WSW 7 9 4 5 1015.5 1015.5 1.8
27/05:30pm 9.0 7.4 7.8 92 0.6 WSW 6 7 3 4 1015.2 1015.2 1.8
27/05:00pm 9.3 7.7 7.9 91 0.7 SW 6 7 3 4 1015.0 1015.0 1.8
27/04:30pm 9.5 7.9 7.8 89 0.8 SW 6 7 3 4 1014.6 1014.6 1.6
27/04:00pm 9.8 7.9 7.7 87 1.0 W 7 11 4 6 1014.4 1014.4 1.6
27/03:30pm 10.0 8.2 8.1 88 0.9 SW 7 11 4 6 1014.2 1014.3 1.4
27/03:00pm 10.4 8.6 8.0 85 1.2 SW 7 9 4 5 1013.7 1013.8 1.4
27/02:30pm 10.7 8.5 7.8 82 1.4 WSW 9 11 5 6 1013.4 1013.5 1.2
27/02:00pm 11.1 8.8 7.4 78 1.8 SW 9 13 5 7 1013.2 1013.3 1.0
27/01:30pm 10.9 9.1 7.8 81 1.5 SW 7 9 4 5 1013.0 1013.1 1.0
27/01:00pm 10.4 8.0 6.9 79 1.7 SW 9 11 5 6 1013.2 1013.3 1.0
27/12:30pm 9.8 7.8 7.1 83 1.3 WSW 7 11 4 6 1013.4 1013.5 1.0
27/12:00pm 9.0 6.6 7.1 88 0.9 W 9 13 5 7 1013.7 1013.8 1.0
27/11:30am 8.6 6.3 7.4 92 0.6 W 9 13 5 7 1014.2 1014.3 1.0
27/11:00am 7.7 5.6 6.6 93 0.5 W 7 13 4 7 1014.6 1014.6 0.8
27/10:30am 7.3 4.7 6.1 92 0.5 W 9 15 5 8 1014.9 1014.9 0.6
27/10:00am 7.5 4.9 6.3 92 0.5 W 9 15 5 8 1015.2 1015.2 0.4
27/09:30am 7.3 5.1 6.1 92 0.5 WNW 7 11 4 6 1015.5 1015.5 0.2
27/09:00am 7.2 4.5 5.8 91 0.6 WNW 9 13 5 7 1015.7 1015.7 0.2
27/08:30am 7.4 4.3 5.7 89 0.8 W 11 17 6 9 1015.6 1015.6 0.2
27/08:00am 7.6 4.7 4.9 83 1.2 W 9 13 5 7 1015.5 1015.5 0.0
27/07:30am 7.6 4.4 5.1 84 1.1 SW 11 15 6 8 1015.2 1015.2 0.0
27/07:00am 7.6 4.4 5.2 85 1.1 WSW 11 17 6 9 1015.3 1015.3 0.0
27/06:30am 7.1 4.7 5.3 88 0.8 W 7 9 4 5 1015.3 1015.3 0.0
27/06:00am 7.3 6.2 5.3 87 0.9 CALM 0 6 0 3 1015.1 1015.1 0.0
27/05:30am 7.2 4.9 4.9 85 1.0 NNW 6 7 3 4 1014.9 1014.9 0.0
27/05:00am 7.3 4.8 5.0 85 1.0 WNW 7 9 4 5 1014.6 1014.6 0.0
27/04:30am 7.1 5.2 4.8 85 1.0 W 4 7 2 4 1014.2 1014.3 0.0
27/04:00am 7.3 5.0 4.8 84 1.1 NW 6 7 3 4 1014.4 1014.4 0.0
27/03:30am 7.3 4.0 4.4 82 1.3 WSW 11 13 6 7 1014.4 1014.4 0.0
27/03:00am 7.2 3.9 4.5 83 1.2 SW 11 15 6 8 1014.5 1014.5 0.0
27/02:30am 6.8 3.9 4.6 86 1.0 SW 9 15 5 8 1014.7 1014.7 0.0
27/02:00am 6.9 3.6 4.6 85 1.0 WSW 11 13 6 7 1015.1 1015.1 0.0
27/01:30am 7.0 4.5 4.7 85 1.0 SW 7 9 4 5 1015.2 1015.2 0.0
27/01:00am 7.2 4.9 5.0 86 1.0 SW 6 7 3 4 1015.2 1015.2 0.0
27/12:30am 6.8 4.5 4.8 87 0.9 WSW 6 7 3 4 1015.7 1015.7 0.0
27/12:00am 6.8 4.8 4.5 85 1.0 W 4 9 2 5 1015.9 1015.9 0.0
 
Date/Time
EST
Temp
°C
App
Temp
°C
Dew
Point
°C
Rel
Hum
%
Delta-T
°C
Wind Press
QNH
hPa
Press
MSL
hPa
Rain since
9am
mm
Dir  Spd
km/h
Gust
km/h
Spd
kts
Gust
kts
26/11:30pm 7.1 5.1 4.4 83 1.2 SW 4 6 2 3 1015.7 1015.7 0.0
26/11:00pm 8.0 6.3 4.2 77 1.7 S 2 6 1 3 1015.6 1015.6 0.0
26/10:30pm 7.6 5.3 4.7 82 1.3 SSE 6 7 3 4 1015.6 1015.6 0.0
26/10:00pm 7.7 5.4 4.7 81 1.3 S 6 7 3 4 1015.8 1015.8 0.0
26/09:30pm 7.9 5.7 5.2 83 1.2 S 6 7 3 4 1016.3 1016.3 0.0
26/09:00pm 8.3 7.1 4.7 78 1.6 CALM 0 4 0 2 1016.9 1016.9 0.0
26/08:30pm 8.4 6.2 5.3 81 1.4 WSW 6 6 3 3 1017.3 1017.3 0.0
26/08:00pm 8.1 5.7 5.2 82 1.3 WSW 7 7 4 4 1017.6 1017.6 0.0
26/07:30pm 8.1 6.8 4.1 76 1.7 CALM 0 0 0 0 1017.0 1017.0 0.0
26/07:00pm 9.3 8.3 5.7 78 1.6 CALM 0 0 0 0 1017.0 1017.0 0.0
26/06:30pm 9.4 7.3 5.6 77 1.7 SSE 6 7 3 4 1016.7 1016.7 0.0
26/06:00pm 9.9 8.1 5.3 73 2.1 SSE 4 6 2 3 1016.9 1016.9 0.0
26/05:30pm 10.2 7.9 5.8 74 2.0 SSE 7 9 4 5 1016.5 1016.5 0.0
26/05:00pm 10.5 8.2 5.5 71 2.3 SSE 7 7 4 4 1016.3 1016.3 0.0
26/04:30pm 11.4 10.3 5.1 65 2.9 CALM 0 0 0 0 1016.4 1016.4 0.0
26/04:00pm 12.3 10.1 5.2 62 3.3 SSE 6 9 3 5 1016.5 1016.5 0.0
26/03:30pm 12.9 10.6 4.6 57 3.8 N 6 7 3 4 1017.2 1017.2 0.0
26/03:00pm 13.6 11.1 3.7 51 4.5 NNW 6 9 3 5 1017.0 1017.0 0.0
26/02:30pm 13.7 10.7 2.3 46 5.0 NW 7 11 4 6 1017.4 1017.4 0.0
26/02:00pm 13.7 10.9 3.2 49 4.7 NNW 7 9 4 5 1017.3 1017.3 0.0
26/01:30pm 13.7 10.4 2.6 47 4.9 NNW 9 11 5 6 1017.7 1017.7 0.0
26/01:00pm 13.9 11.0 2.5 46 5.0 NNW 7 11 4 6 1018.0 1018.0 0.0
26/12:30pm 14.5 12.0 3.9 49 4.9 SW 6 9 3 5 1018.2 1018.2 0.0
26/12:00pm 12.6 9.4 3.0 52 4.2 NW 9 15 5 8 1018.9 1018.9 0.0
26/11:30am 12.4 9.2 3.1 53 4.1 WNW 9 13 5 7 1019.6 1019.6 0.0
26/11:00am 11.4 8.2 2.9 56 3.7 W 9 13 5 7 1020.2 1020.2 0.0
26/10:30am 10.4 6.7 2.5 58 3.4 W 11 17 6 9 1020.6 1020.6 0.0
26/10:00am 9.2 5.5 2.3 62 2.9 W 11 17 6 9 1021.2 1021.2 0.0
26/09:30am 8.0 3.9 2.0 66 2.5 W 13 20 7 11 1020.9 1020.9 0.0
26/09:00am 6.5 2.3 1.4 70 2.0 W 13 17 7 9 1020.8 1020.8 0.0
26/08:30am 5.0 1.5 1.3 77 1.5 W 9 13 5 7 1021.0 1021.0 0.0
26/08:00am 3.2 -0.3 1.1 86 0.8 W 9 11 5 6 1021.3 1021.3 0.0
26/07:30am 2.3 -1.3 0.5 88 0.7 WSW 9 13 5 7 1021.1 1021.1 0.0
26/07:00am 2.6 -0.6 0.7 87 0.7 W 7 9 4 5 1021.1 1021.1 0.0
26/06:30am 2.9 -0.1 0.8 86 0.8 SW 6 9 3 5 1020.8 1020.8 0.0
26/06:00am 2.2 -1.4 0.4 88 0.7 WSW 9 11 5 6 1020.5 1020.5 0.0
26/05:30am 2.0 -1.7 0.1 87 0.7 W 9 11 5 6 1020.6 1020.6 0.0
26/05:00am 2.5 -0.8 -0.1 83 1.0 WSW 7 9 4 5 1020.2 1020.2 0.0
26/04:30am 3.6 -0.1 0.1 78 1.3 WSW 9 13 5 7 1019.9 1019.9 0.0
26/04:00am 4.3 -0.1 0.5 76 1.5 SW 13 19 7 10 1019.4 1019.4 0.0
26/03:30am 3.8 -0.9 0.7 80 1.2 WSW 15 20 8 11 1019.4 1019.4 0.0
26/03:00am 3.9 -0.1 0.6 79 1.3 SW 11 17 6 9 1020.1 1020.1 0.0
26/02:30am 3.8 -0.2 0.5 79 1.3 SW 11 15 6 8 1020.2 1020.2 0.0
26/02:00am 3.9 0.3 0.6 79 1.3 SW 9 13 5 7 1020.6 1020.6 0.0
26/01:30am 4.2 0.6 0.5 77 1.4 WSW 9 15 5 8 1020.7 1020.7 0.0
26/01:00am 4.5 0.1 0.6 76 1.5 WSW 13 17 7 9 1020.8 1020.8 0.0
26/12:30am 4.8 0.5 0.8 75 1.6 SW 13 17 7 9 1020.9 1020.9 0.0
26/12:00am 5.1 0.8 0.7 73 1.7 SW 13 19 7 10 1020.9 1020.9 0.0
 
Date/Time
EST
Temp
°C
App
Temp
°C
Dew
Point
°C
Rel
Hum
%
Delta-T
°C
Wind Press
QNH
hPa
Press
MSL
hPa
Rain since
9am
mm
Dir  Spd
km/h
Gust
km/h
Spd
kts
Gust
kts
25/11:30pm 5.2 0.9 0.8 73 1.7 SW 13 20 7 11 1020.8 1020.8 0.0

Other Formats:

Comma delimited format used in spreadsheet applications
http://www.bom.gov.au/fwo/IDN60801/IDN60801.95761.axf

JavaScript Object Notation format (JSON) in row-major order
http://www.bom.gov.au/fwo/IDN60801/IDN60801.95761.json